• Join FlightAware (Why Join?)
  • Login
  • US Flag 
03:22PM EDT


 

Airport Tracker/Info


-or-


 

Live Flight TrackerFlight Track Log ✈ SKW5631 ✈ 27-Apr-2013 ✈ KDEN - KCOD

Flight Track Log - Related Links

Times and Time Zones

All times are in EDT time to prevent confusion due to time zone crossing. See the SKW5631 flight status page for this flight to view local times or setup timezone preferences in your user account.

Time Position Orientation Groundspeed Altitude Reporting Facility
EDT Latitude Longitude Course Direction KTS MPH feet Rate Location/Type
09:23PM 39.9667 -104.6833 11° North 231 266 7,800  Level Denver TRACON
09:24PM 40.0333 -104.6667 11° North 279 321 9,300 1,680 Climbing Denver TRACON
09:25PM 40.1000 -104.6667 360° North 296 341 11,000 1,740 Climbing Denver TRACON
09:26PM 40.1325 -104.6778 345° North 304 350 11,500 2,040 Climbing Denver Center
09:27PM 40.2228 -104.7025 348° North 310 357 13,800 1,800 Climbing Denver Center
09:28PM 40.3164 -104.7269 349° North 344 396 15,200 1,500 Climbing Denver Center
09:29PM 40.4119 -104.7519 349° North 351 404 16,900 1,560 Climbing Denver Center
09:30PM 40.5178 -104.7800 349° North 358 412 18,500 1,320 Climbing Denver Center
09:31PM 40.6169 -104.8072 348° North 363 418 19,700 1,140 Climbing Denver Center
09:32PM 40.7197 -104.8331 349° North 377 434 20,900 1,140 Climbing Denver Center
09:33PM 40.8272 -104.8700 345° North 370 426 22,100 1,140 Climbing Denver Center
09:34PM 40.9286 -104.9197 340° North 384 442 23,300 960 Climbing Denver Center
09:35PM 41.0233 -104.9675 339° North 387 445 24,100 900 Climbing Denver Center
09:36PM 41.1381 -105.0231 340° North 393 452 25,200 780 Climbing Denver Center
09:37PM 41.2375 -105.0722 340° North 396 456 25,700 480 Climbing Denver Center
09:38PM 41.3222 -105.1653 320° Northwest 411 473 26,300 840 Climbing Denver Center
09:39PM 41.4192 -105.2711 321° Northwest 405 466 27,500 1,080 Climbing Denver Center
09:40PM 41.4997 -105.3650 319° Northwest 402 463 28,600 1,080 Climbing Denver Center
09:41PM 41.5914 -105.4689 320° Northwest 390 449 29,800 1,020 Climbing Denver Center
09:42PM 41.6681 -105.5564 320° Northwest 381 438 30,800 840 Climbing Denver Center
09:43PM 41.7444 -105.6431 320° Northwest 376 433 31,600 540 Climbing Denver Center
09:44PM 41.8331 -105.7444 320° Northwest 375 432 32,000 180 Climbing Denver Center
09:45PM 41.9111 -105.8342 319° Northwest 383 441 32,000  Level Denver Center
09:46PM 42.0047 -105.9417 320° Northwest 393 452 32,000  Level Denver Center
09:47PM 42.0847 -106.0339 319° Northwest 395 455 32,000  Level Denver Center
09:48PM 42.1631 -106.1269 319° Northwest 394 453 32,000  Level Denver Center
09:49PM 42.2606 -106.2392 320° Northwest 407 468 32,000  Level Denver Center
09:50PM 42.3439 -106.3356 319° Northwest 411 473 32,000  Level Denver Center
09:51PM 42.4233 -106.4331 318° Northwest 408 470 32,000  Level Denver Center
09:52PM 42.5183 -106.5447 319° Northwest 406 467 32,000  Level Denver Center
09:53PM 42.5997 -106.6400 319° Northwest 403 464 32,000  Level Denver Center
09:54PM 42.6944 -106.7522 319° Northwest 404 465 32,000  Level Denver Center
09:55PM 42.7747 -106.8469 319° Northwest 400 460 32,000  Level Denver Center
09:56PM 42.8550 -106.9431 319° Northwest 401 461 32,000  Level Denver Center
09:57PM 42.9469 -107.0539 319° Northwest 397 457 32,000  Level Denver Center
09:58PM 43.0258 -107.1492 319° Northwest 396 456 32,000  Level Denver Center
09:59PM 43.1061 -107.2469 318° Northwest 399 459 32,000  Level Denver Center
10:00PM 43.1967 -107.3564 319° Northwest 392 451 32,000  Level Denver Center
10:01PM 43.2622 -107.4369 318° Northwest 400 460 32,000  Level Salt Lake Center
10:02PM 43.3414 -107.5375 317° Northwest 403 464 32,000  Level Salt Lake Center
10:03PM 43.4328 -107.6500 318° Northwest 396 456 32,000 -420 Level Salt Lake Center
10:04PM 43.5125 -107.7478 318° Northwest 401 461 31,200 -1,560 Descending Salt Lake Center
10:05PM 43.5919 -107.8472 318° Northwest 402 463 28,900 -2,400 Descending Salt Lake Center
10:06PM 43.6806 -107.9567 318° Northwest 384 442 26,400 -2,400 Descending Salt Lake Center
10:07PM 43.7539 -108.0486 318° Northwest 375 432 24,100 -2,400 Descending Salt Lake Center
10:08PM 43.8375 -108.1522 318° Northwest 363 418 21,500 -2,460 Descending Salt Lake Center
10:09PM 43.9069 -108.2414 317° Northwest 357 411 19,100 -2,280 Descending Salt Lake Center
10:10PM 43.9719 -108.3250 317° Northwest 345 397 16,900 -1,980 Descending Salt Lake Center
10:11PM 44.0433 -108.4161 317° Northwest 329 379 15,100 -1,620 Descending Salt Lake Center
10:12PM 44.1017 -108.4856 319° Northwest 309 356 13,700 -1,260 Descending Salt Lake Center
10:13PM 44.1811 -108.5203 343° North 312 359 12,600 -840 Descending Salt Lake Center
10:14PM 44.2686 -108.5644 340° North 307 353 12,000 -300 Descending Salt Lake Center
10:15PM 44.3400 -108.6011 340° North 297 342 12,000  Level Salt Lake Center
10:16PM 44.4092 -108.6367 340° North 286 329 12,000  Level Salt Lake Center
10:17PM 44.4964 -108.6764 342° North 288 331 12,000 -540 Level Salt Lake Center
10:19PM 44.5742 -108.6833 356° North 290 334 10,900 -1,260 Descending Salt Lake Center
10:20PM 44.6347 -108.7314 331° Northwest 273 314 9,500 -1,500 Descending Salt Lake Center
10:21PM 44.6339 -108.8231 269° West 243 280 7,900 -1,020 Descending Salt Lake Center
10:22PM 44.6044 -108.8761 232° Southwest 204 235 7,500 -600 Descending Salt Lake Center
10:23PM 44.5781 -108.9231 232° Southwest 159 183 6,800 -720 Descending Salt Lake Center
10:24PM 44.5564 -108.9631 233° Southwest 143 165 6,100 -600 Descending Salt Lake Center
10:25PM 44.5328 -109.0056 232° Southwest 142 163 5,600 -540 Descending Salt Lake Center
10:27PM 44.5167 -109.0167 245° Southwest  Level FlightAware Approximate